Lennox, SD

3:07 PM CST on November 27, 2014 (GMT -0600)
Northside | Change Station
CLOSE
Current Station
Personal Weather Station
Location: Lennox, SD
Elevation: 1358 ft
Nearby Weather Stations

Elev 1358 ft 43.36 °N, 96.90 °W | Updated 6 minutes ago

Overcast
Overcast
10.8 °F
Feels Like 1 °F
N
5.8
Wind Variable Wind from SE

Today
High -- | Low -- °F
--% Chance of Precip.
Yesterday
High -- | Low -- °F
Precip. -- in
7:35 AM 4:54 PM
Waxing Crescent, 33% visible
Pressure 30.40 in
Visibility 10.0 miles
Clouds Scattered Clouds 4200 ft
Overcast 5000 ft
Windchill 1 °F
Dew Point 3 °F
Humidity 69%
Rainfall 0.00 in
Snow Depth Not available.
UV 0 out of 12
Pollen .10 out of 12
Air Quality Not available.
Flu Activity Not available.
METAR KFSD 272056Z 14011KT 10SM SCT042 OVC050 M12/M18 A3029 RMK AO2 SLP294 T11171178 58043

More Conditions Fewer Conditions

Pressure 30.40 in
Visibility 10.0 miles
Clouds Scattered Clouds 4200 ft
Overcast 5000 ft
Windchill 1 °F
Dew Point 3 °F
Humidity 69%
Rainfall 0.00 in
Snow Depth Not available.
UV 0 out of 12
Pollen .10 out of 12
Air Quality Not available.
Flu Activity Not available.
METAR KFSD 272056Z 14011KT 10SM SCT042 OVC050 M12/M18 A3029 RMK AO2 SLP294 T11171178 58043

More Conditions Fewer Conditions

10-Day Weather Forecast

Almanac

Astronomy

Nov. 27, 2014 Rise Set
Actual Time
Civil Twilight
Nautical Twilight
Astronomical Twilight
Moon
Length of Visible Light
Length of Day
Tomorrow will be .
, % of the Moon is Illuminated

Today's Extremes

State Highs State Lows

Community

WunderPhotos

Upload Photos

1,774,104 photos uploaded!

WunderBlogs® & News

Nearby

Air Quality

  Air Quality AQ Index Pollutant
Not available.

Snow Depth

Station Depth Elevation

Earthquake Activity

City Distance Mag. Time & Date
Minimum magnitude displayed is 2.5.

Coastal Water Temperatures

Place Temperature

Nearby Weather Stations